createdAt,value
2017-11-04T00:01:54.963Z,24.90
2017-11-04T00:04:29.863Z,25.17
2017-11-04T00:07:05.013Z,24.77
2017-11-04T00:09:40.148Z,24.43
2017-11-04T00:12:15.224Z,24.87
2017-11-04T00:14:50.332Z,25.73
2017-11-04T00:17:24.953Z,25.10
2017-11-04T00:20:00.192Z,24.57
2017-11-04T00:22:34.974Z,24.60
2017-11-04T00:25:09.535Z,25.50
2017-11-04T00:27:43.756Z,26.93
2017-11-04T00:30:17.840Z,26.50
2017-11-04T00:32:53.210Z,26.60
2017-11-04T00:35:28.188Z,27.30
2017-11-04T00:38:03.032Z,25.03
2017-11-04T00:40:37.840Z,24.23
2017-11-04T00:43:12.393Z,23.40
2017-11-04T00:45:47.325Z,25.30
2017-11-04T00:48:21.867Z,22.40
2017-11-04T00:50:56.926Z,24.20
2017-11-04T00:53:32.072Z,24.20
2017-11-04T00:56:06.904Z,23.07
2017-11-04T00:58:41.424Z,23.90
2017-11-04T01:01:16.011Z,22.87
2017-11-04T01:03:50.944Z,22.30
2017-11-04T01:06:26.288Z,22.40
2017-11-04T01:09:00.963Z,23.47
2017-11-04T01:11:35.899Z,23.53
2017-11-04T01:14:10.424Z,23.33
2017-11-04T01:16:44.856Z,24.27
2017-11-04T01:19:20.007Z,23.10
2017-11-04T01:21:54.939Z,21.07
2017-11-04T01:24:29.369Z,21.13
2017-11-04T01:27:04.102Z,21.00
2017-11-04T01:29:38.696Z,21.40
2017-11-04T01:32:13.833Z,22.73
2017-11-04T01:34:48.845Z,24.27
2017-11-04T01:37:24.021Z,24.60
2017-11-04T01:39:58.868Z,23.40
2017-11-04T01:42:33.362Z,23.90
2017-11-04T01:45:08.670Z,24.00
2017-11-04T01:47:43.300Z,24.17
2017-11-04T01:50:18.224Z,23.73
2017-11-04T01:52:52.981Z,23.03
2017-11-04T01:55:28.055Z,25.67
2017-11-04T01:58:03.264Z,26.60
2017-11-04T02:00:38.507Z,29.20
2017-11-04T02:03:13.293Z,26.70
2017-11-04T02:05:47.612Z,27.20
2017-11-04T02:08:22.580Z,27.93
2017-11-04T02:10:57.540Z,26.03
2017-11-04T02:13:32.687Z,25.97
2017-11-04T02:16:07.460Z,26.40
2017-11-04T02:18:41.897Z,26.90
2017-11-04T02:21:16.812Z,27.10
2017-11-04T02:23:51.592Z,26.17
2017-11-04T02:26:26.511Z,28.27
2017-11-04T02:29:01.295Z,27.97
2017-11-04T02:31:36.756Z,28.30
2017-11-04T02:34:11.060Z,27.77
2017-11-04T02:36:45.329Z,27.73
2017-11-04T02:39:20.760Z,30.00
2017-11-04T02:41:55.808Z,28.13
2017-11-04T02:44:30.697Z,27.00
2017-11-04T02:47:05.588Z,29.10
2017-11-04T02:49:40.906Z,27.90
2017-11-04T02:52:16.032Z,28.97
2017-11-04T02:54:50.456Z,30.40
2017-11-04T02:57:25.601Z,28.47
2017-11-04T03:00:00.341Z,28.50
2017-11-04T03:02:35.379Z,27.90
2017-11-04T03:05:10.399Z,27.53
2017-11-04T03:07:45.440Z,29.90
2017-11-04T03:10:20.380Z,30.43
2017-11-04T03:12:55.735Z,29.50
2017-11-04T03:15:30.759Z,28.77
2017-11-04T03:18:06.307Z,28.17
2017-11-04T03:20:41.288Z,28.10
2017-11-04T03:23:15.171Z,30.13
2017-11-04T03:25:50.048Z,27.60
2017-11-04T03:28:25.140Z,26.60
2017-11-04T03:31:00.244Z,29.40
2017-11-04T03:33:35.072Z,30.80
2017-11-04T03:36:10.063Z,31.00
2017-11-04T03:38:44.880Z,26.47
2017-11-04T03:41:20.285Z,28.50
2017-11-04T03:43:55.155Z,29.27
2017-11-04T03:46:30.164Z,32.37
2017-11-04T03:49:05.273Z,30.20
2017-11-04T03:51:40.628Z,29.30
2017-11-04T03:54:15.748Z,30.00
2017-11-04T03:56:50.284Z,29.50
2017-11-04T03:59:25.524Z,31.53
2017-11-04T04:02:00.660Z,26.67
2017-11-04T04:04:35.508Z,28.63
2017-11-04T04:07:10.636Z,29.90
2017-11-04T04:09:45.163Z,30.07
2017-11-04T04:12:20.328Z,30.70
2017-11-04T04:14:55.719Z,31.37
2017-11-04T04:17:30.572Z,29.47
2017-11-04T04:20:05.456Z,30.90
2017-11-04T04:22:39.938Z,28.73
2017-11-04T04:25:15.069Z,30.20
2017-11-04T04:27:50.102Z,29.40
2017-11-04T04:30:25.208Z,31.57
2017-11-04T04:33:00.380Z,30.10
2017-11-04T04:35:35.432Z,30.57
2017-11-04T04:38:10.198Z,30.37
2017-11-04T04:40:45.226Z,31.07
2017-11-04T04:43:19.980Z,28.70
2017-11-04T04:45:54.896Z,29.60
2017-11-04T04:48:29.621Z,29.63
2017-11-04T04:51:05.247Z,31.30
2017-11-04T04:53:40.205Z,30.67
2017-11-04T04:56:15.528Z,30.50
2017-11-04T04:58:50.315Z,28.77
2017-11-04T05:01:25.664Z,29.67
2017-11-04T05:04:00.570Z,30.60
2017-11-04T05:06:35.984Z,29.37
2017-11-04T05:09:10.279Z,30.17
2017-11-04T05:11:45.396Z,27.97
2017-11-04T05:14:19.884Z,27.17
2017-11-04T05:16:54.804Z,27.20
2017-11-04T05:19:29.516Z,29.30
2017-11-04T05:22:04.386Z,27.70
2017-11-04T05:24:39.092Z,28.43
2017-11-04T05:27:14.023Z,29.60
2017-11-04T05:29:49.316Z,28.43
2017-11-04T05:32:24.472Z,30.30
2017-11-04T05:34:59.535Z,29.57
2017-11-04T05:37:34.476Z,28.23
2017-11-04T05:40:09.424Z,27.27
2017-11-04T05:42:44.452Z,27.73
2017-11-04T05:45:19.567Z,28.83
2017-11-04T05:47:54.828Z,27.30
2017-11-04T05:50:29.788Z,26.30
2017-11-04T05:53:04.715Z,26.67
2017-11-04T05:55:42.095Z,25.50
2017-11-04T05:58:16.311Z,27.03
2017-11-04T06:00:51.151Z,25.90
2017-11-04T06:03:25.207Z,27.30
2017-11-04T06:06:00.031Z,24.77
2017-11-04T06:08:35.281Z,26.17
2017-11-04T06:11:12.076Z,27.77
2017-11-04T06:13:47.407Z,25.17
2017-11-04T06:16:22.634Z,24.30
2017-11-04T06:18:57.367Z,26.20
2017-11-04T06:21:33.069Z,27.47
2017-11-04T06:24:08.671Z,26.87
2017-11-04T06:26:43.295Z,28.73
2017-11-04T06:29:18.635Z,28.20
2017-11-04T06:31:53.840Z,28.67
2017-11-04T06:34:28.868Z,29.10
2017-11-04T06:37:03.884Z,27.70
2017-11-04T06:39:38.743Z,27.70
2017-11-04T06:42:13.640Z,29.27
2017-11-04T06:44:48.251Z,28.57
2017-11-04T06:47:22.728Z,29.20
2017-11-04T06:49:57.708Z,28.60
2017-11-04T06:52:32.851Z,28.33
2017-11-04T06:55:07.788Z,28.13
2017-11-04T06:57:42.899Z,28.43
2017-11-04T07:00:17.792Z,28.33
2017-11-04T07:02:52.620Z,30.27
2017-11-04T07:05:27.427Z,29.40
2017-11-04T07:08:02.472Z,29.10
2017-11-04T07:10:37.486Z,30.43
2017-11-04T07:13:12.660Z,30.67
2017-11-04T07:15:47.587Z,30.27
2017-11-04T07:18:22.784Z,29.20
2017-11-04T07:20:57.819Z,28.20
2017-11-04T07:23:32.240Z,27.70
2017-11-04T07:26:07.485Z,28.87
2017-11-04T07:28:42.724Z,27.03
2017-11-04T07:31:17.695Z,29.63
2017-11-04T07:33:51.967Z,27.20
2017-11-04T07:36:26.444Z,29.30
2017-11-04T07:39:01.429Z,26.47
2017-11-04T07:41:36.352Z,30.10
2017-11-04T07:44:11.692Z,29.90
2017-11-04T07:46:47.281Z,29.07
2017-11-04T07:49:22.433Z,28.93
2017-11-04T07:51:57.812Z,27.53
2017-11-04T07:54:33.016Z,27.50
2017-11-04T07:57:08.321Z,25.70
2017-11-04T07:59:43.466Z,28.40
2017-11-04T08:02:18.605Z,27.53
2017-11-04T08:04:53.831Z,28.63
2017-11-04T08:07:29.000Z,28.57
2017-11-04T08:10:04.106Z,27.67
2017-11-04T08:12:38.606Z,28.83
2017-11-04T08:15:13.783Z,29.20
2017-11-04T08:17:48.896Z,27.47
2017-11-04T08:20:23.792Z,31.60
2017-11-04T08:22:59.076Z,28.50
2017-11-04T08:25:34.525Z,28.20
2017-11-04T08:28:10.189Z,29.60
2017-11-04T08:30:44.932Z,27.90
2017-11-04T08:33:19.736Z,27.63
2017-11-04T08:35:54.688Z,28.87
2017-11-04T08:38:29.924Z,27.67
2017-11-04T08:41:05.519Z,26.10
2017-11-04T08:43:41.082Z,27.10
2017-11-04T08:46:15.840Z,27.07
2017-11-04T08:48:50.513Z,25.77
2017-11-04T08:51:25.644Z,26.10
2017-11-04T08:54:00.229Z,25.53
2017-11-04T08:56:35.237Z,25.73
2017-11-04T08:59:10.172Z,27.77
2017-11-04T09:01:44.576Z,28.40
2017-11-04T09:04:20.005Z,24.97
2017-11-04T09:06:55.320Z,24.67
2017-11-04T09:09:30.367Z,25.63
2017-11-04T09:12:06.096Z,27.13
2017-11-04T09:14:40.821Z,24.60
2017-11-04T09:17:15.807Z,26.13
2017-11-04T09:19:50.287Z,26.07
2017-11-04T09:22:24.972Z,25.13
2017-11-04T09:25:00.256Z,27.20
2017-11-04T09:27:34.723Z,25.67
2017-11-04T09:30:10.021Z,25.73
2017-11-04T09:32:45.159Z,23.87
2017-11-04T09:35:20.340Z,24.10
2017-11-04T09:37:55.661Z,23.30
2017-11-04T09:40:30.872Z,22.40
2017-11-04T09:43:05.579Z,23.03
2017-11-04T09:45:40.436Z,23.77
2017-11-04T09:48:15.337Z,22.60
2017-11-04T09:50:50.563Z,23.13
2017-11-04T09:53:25.388Z,23.40
2017-11-04T09:56:00.419Z,24.97
2017-11-04T09:58:34.576Z,23.47
2017-11-04T10:01:09.059Z,22.93
2017-11-04T10:03:43.571Z,21.10
2017-11-04T10:06:18.712Z,21.10
2017-11-04T10:08:54.116Z,20.83
2017-11-04T10:11:29.153Z,21.57
2017-11-04T10:14:03.793Z,22.33
2017-11-04T10:16:38.923Z,21.57
2017-11-04T10:19:13.400Z,20.90
2017-11-04T10:21:48.713Z,20.13
2017-11-04T10:24:24.056Z,19.30
2017-11-04T10:26:59.193Z,20.53
2017-11-04T10:29:34.188Z,20.07
2017-11-04T10:32:09.496Z,20.63
2017-11-04T10:34:44.680Z,20.00
2017-11-04T10:37:19.052Z,22.77
2017-11-04T10:39:54.176Z,20.60
2017-11-04T10:42:40.566Z,19.60
2017-11-04T10:45:15.451Z,20.53
2017-11-04T10:47:50.224Z,20.67
2017-11-04T10:50:25.661Z,20.20
2017-11-04T10:53:00.596Z,21.77
2017-11-04T10:55:35.406Z,22.20
2017-11-04T10:58:10.580Z,21.70
2017-11-04T11:00:45.735Z,20.63
2017-11-04T11:03:20.421Z,22.67
2017-11-04T11:05:55.884Z,24.67
2017-11-04T11:08:30.740Z,22.70
2017-11-04T11:11:05.625Z,23.40
2017-11-04T11:13:40.212Z,20.03
2017-11-04T11:16:14.748Z,21.30
2017-11-04T11:18:49.760Z,21.33
2017-11-04T11:21:24.808Z,20.53
2017-11-04T11:23:59.996Z,19.97
2017-11-04T11:26:34.931Z,20.90
2017-11-04T11:29:09.892Z,22.17
2017-11-04T11:31:45.139Z,21.40
2017-11-04T11:34:20.347Z,21.77
2017-11-04T11:36:55.772Z,23.40
2017-11-04T11:39:30.732Z,22.40
2017-11-04T11:42:06.372Z,21.27
2017-11-04T11:44:41.818Z,21.07
2017-11-04T11:47:17.307Z,20.90
2017-11-04T11:49:52.447Z,23.00
2017-11-04T11:52:26.855Z,21.20
2017-11-04T11:55:02.172Z,22.27
2017-11-04T11:57:37.241Z,21.67
2017-11-04T12:00:12.464Z,22.23
2017-11-04T12:02:47.723Z,23.00
2017-11-04T12:05:22.849Z,21.70
2017-11-04T12:07:58.015Z,22.10
2017-11-04T12:10:33.628Z,22.27
2017-11-04T12:13:08.765Z,22.33
2017-11-04T12:15:43.914Z,22.70
2017-11-04T12:18:19.398Z,20.70
2017-11-04T12:20:54.591Z,23.70
2017-11-04T12:23:29.808Z,22.67
2017-11-04T12:26:04.679Z,22.83
2017-11-04T12:28:39.507Z,20.67
2017-11-04T12:31:14.108Z,23.83
2017-11-04T12:33:49.568Z,22.90
2017-11-04T12:36:25.111Z,21.30
2017-11-04T12:38:59.814Z,20.77
2017-11-04T12:41:34.352Z,21.50
2017-11-04T12:44:09.783Z,23.23
2017-11-04T12:46:44.610Z,23.27
2017-11-04T12:49:19.935Z,23.40
2017-11-04T12:51:55.043Z,21.90
2017-11-04T12:54:30.315Z,21.70
2017-11-04T12:57:04.892Z,21.80
2017-11-04T12:59:40.219Z,24.50
2017-11-04T13:02:15.281Z,24.83
2017-11-04T13:04:50.486Z,24.53
2017-11-04T13:07:25.635Z,23.30
2017-11-04T13:10:01.020Z,23.93
2017-11-04T13:12:36.359Z,22.27
2017-11-04T13:15:11.072Z,23.10
2017-11-04T13:17:46.092Z,25.40
2017-11-04T13:20:20.952Z,24.30
2017-11-04T13:22:55.596Z,24.10
2017-11-04T13:25:29.724Z,24.80
2017-11-04T13:28:05.009Z,24.00
2017-11-04T13:30:40.139Z,23.27
2017-11-04T13:33:15.287Z,23.03
2017-11-04T13:35:50.692Z,23.63
2017-11-04T13:38:25.608Z,23.77
2017-11-04T13:41:00.777Z,23.70
2017-11-04T13:43:35.904Z,21.03
2017-11-04T13:46:11.056Z,23.20
2017-11-04T13:48:46.395Z,22.90
2017-11-04T13:51:21.324Z,21.30
2017-11-04T13:53:56.067Z,21.37
2017-11-04T13:56:31.128Z,20.77
2017-11-04T13:59:06.572Z,21.00
2017-11-04T14:01:41.856Z,23.53
2017-11-04T14:04:16.651Z,22.47
2017-11-04T14:06:51.159Z,20.27
2017-11-04T14:09:26.488Z,20.70
2017-11-04T14:12:01.316Z,21.40
2017-11-04T14:14:35.867Z,23.50
2017-11-04T14:17:11.203Z,20.50
2017-11-04T14:19:46.123Z,23.47
2017-11-04T14:22:21.280Z,21.50
2017-11-04T14:24:55.855Z,22.20
2017-11-04T14:27:31.019Z,22.00
2017-11-04T14:30:06.298Z,24.10
2017-11-04T14:32:42.019Z,20.87
2017-11-04T14:35:17.372Z,23.93
2017-11-04T14:37:52.624Z,23.60
2017-11-04T14:40:28.056Z,21.83
2017-11-04T14:43:02.906Z,24.50
2017-11-04T14:45:38.240Z,22.30
2017-11-04T14:48:13.069Z,22.77
2017-11-04T14:50:48.076Z,22.00
2017-11-04T14:53:23.052Z,22.53
2017-11-04T14:55:58.079Z,23.10
2017-11-04T14:58:32.900Z,23.10
2017-11-04T15:01:07.932Z,19.03
2017-11-04T15:03:42.964Z,21.93
2017-11-04T15:06:18.124Z,20.67
2017-11-04T15:08:53.012Z,21.50
2017-11-04T15:11:27.970Z,21.37
2017-11-04T15:14:03.852Z,20.30
2017-11-04T15:16:39.179Z,21.33
2017-11-04T15:19:14.385Z,22.10
2017-11-04T15:21:49.560Z,22.13
2017-11-04T15:24:24.916Z,20.00
2017-11-04T15:26:59.835Z,20.37
2017-11-04T15:29:34.800Z,20.77
2017-11-04T15:32:10.226Z,21.47
2017-11-04T15:34:45.552Z,20.17
2017-11-04T15:37:20.380Z,20.57
2017-11-04T15:39:55.808Z,18.07
2017-11-04T15:42:30.679Z,20.30
2017-11-04T15:45:05.616Z,19.80
2017-11-04T15:47:40.444Z,20.60
2017-11-04T15:50:15.649Z,20.10
2017-11-04T15:52:50.778Z,17.67
2017-11-04T15:55:25.855Z,16.47
2017-11-04T15:58:00.983Z,18.93
2017-11-04T16:00:36.108Z,19.30
2017-11-04T16:03:11.160Z,20.67
2017-11-04T16:05:45.663Z,21.27
2017-11-04T16:08:21.404Z,20.17
2017-11-04T16:10:56.135Z,21.00
2017-11-04T16:13:31.300Z,19.60
2017-11-04T16:16:06.410Z,19.63
2017-11-04T16:18:41.536Z,21.80
2017-11-04T16:21:16.593Z,21.93
2017-11-04T16:23:51.739Z,22.20
2017-11-04T16:26:26.851Z,22.20
2017-11-04T16:29:02.017Z,22.77
2017-11-04T16:31:37.048Z,22.07
2017-11-04T16:34:12.219Z,18.87
2017-11-04T16:36:47.204Z,21.87
2017-11-04T16:39:22.160Z,22.17
2017-11-04T16:41:56.920Z,21.13
2017-11-04T16:44:32.068Z,26.00
2017-11-04T16:47:06.956Z,23.53
2017-11-04T16:49:41.406Z,20.90
2017-11-04T16:52:16.127Z,21.90
2017-11-04T16:54:50.932Z,21.40
2017-11-04T16:57:25.838Z,21.70
2017-11-04T17:00:00.535Z,22.73
2017-11-04T17:02:35.856Z,19.33
2017-11-04T17:05:11.020Z,21.73
2017-11-04T17:07:46.027Z,20.80
2017-11-04T17:10:20.867Z,20.57
2017-11-04T17:12:55.520Z,20.33
2017-11-04T17:15:30.427Z,21.50
2017-11-04T17:18:05.419Z,19.03
2017-11-04T17:20:40.483Z,19.40
2017-11-04T17:23:15.831Z,20.10
2017-11-04T17:25:50.348Z,20.47
2017-11-04T17:28:25.575Z,21.20
2017-11-04T17:31:00.680Z,20.30
2017-11-04T17:33:35.604Z,32.37
2017-11-04T17:36:10.852Z,22.90
2017-11-04T17:38:45.716Z,20.90
2017-11-04T17:41:20.306Z,21.23
2017-11-04T17:43:55.721Z,20.50
2017-11-04T17:46:30.803Z,17.97
2017-11-04T17:49:05.136Z,18.30
2017-11-04T17:51:40.795Z,17.70
2017-11-04T17:54:15.736Z,18.03
2017-11-04T17:56:50.504Z,17.53
2017-11-04T17:59:25.487Z,18.90
2017-11-04T18:02:00.308Z,18.27
2017-11-04T18:04:34.970Z,16.00
2017-11-04T18:07:10.115Z,16.50
2017-11-04T18:09:44.827Z,15.60
2017-11-04T18:12:19.780Z,16.37
2017-11-04T18:14:54.888Z,15.10
2017-11-04T18:17:30.196Z,15.57
2017-11-04T18:20:04.992Z,16.07
2017-11-04T18:22:39.780Z,15.03
2017-11-04T18:25:14.928Z,12.83
2017-11-04T18:27:49.431Z,13.30
2017-11-04T18:30:24.408Z,14.13
2017-11-04T18:32:59.551Z,13.60
2017-11-04T18:35:34.563Z,13.63
2017-11-04T18:38:09.797Z,14.20
2017-11-04T18:40:44.647Z,17.07
2017-11-04T18:43:19.987Z,18.03
2017-11-04T18:45:55.000Z,14.63
2017-11-04T18:48:29.747Z,14.53
2017-11-04T18:51:04.288Z,14.40
2017-11-04T18:53:39.256Z,14.30
2017-11-04T18:56:14.535Z,15.03
2017-11-04T18:58:49.776Z,13.40
2017-11-04T19:01:25.000Z,14.03
2017-11-04T19:03:59.704Z,13.97
2017-11-04T19:06:34.815Z,13.67
2017-11-04T19:09:10.341Z,13.13
2017-11-04T19:11:45.445Z,12.80
2017-11-04T19:14:20.324Z,12.93
2017-11-04T19:16:54.720Z,13.70
2017-11-04T19:19:29.243Z,10.77
2017-11-04T19:22:04.512Z,12.83
2017-11-04T19:24:39.548Z,14.00
2017-11-04T19:27:14.896Z,12.57
2017-11-04T19:29:49.831Z,13.00
2017-11-04T19:32:24.971Z,13.27
2017-11-04T19:35:00.031Z,14.00
2017-11-04T19:37:34.667Z,13.23
2017-11-04T19:40:09.307Z,13.17
2017-11-04T19:42:44.500Z,12.30
2017-11-04T19:45:18.980Z,14.57
2017-11-04T19:47:54.156Z,12.50
2017-11-04T19:50:29.127Z,14.27
2017-11-04T19:53:03.963Z,12.47
2017-11-04T19:55:38.359Z,13.40
2017-11-04T19:58:13.076Z,11.93
2017-11-04T20:00:48.016Z,13.70
2017-11-04T20:03:23.132Z,12.67
2017-11-04T20:05:58.172Z,13.93
2017-11-04T20:08:33.495Z,13.00
2017-11-04T20:11:08.603Z,12.20
2017-11-04T20:13:43.839Z,12.93
2017-11-04T20:16:18.488Z,13.70
2017-11-04T20:18:53.739Z,12.73
2017-11-04T20:21:28.143Z,13.57
2017-11-04T20:24:03.435Z,12.03
2017-11-04T20:26:38.648Z,11.80
2017-11-04T20:29:14.092Z,11.80
2017-11-04T20:31:49.242Z,12.53
2017-11-04T20:34:24.493Z,11.10
2017-11-04T20:36:58.937Z,12.37
2017-11-04T20:39:34.232Z,12.40
2017-11-04T20:42:09.368Z,11.60
2017-11-04T20:44:43.811Z,12.10
2017-11-04T20:47:19.024Z,12.40
2017-11-04T20:49:54.152Z,12.53
2017-11-04T20:52:29.103Z,12.17
2017-11-04T20:55:04.352Z,10.83
2017-11-04T20:57:39.749Z,13.40
2017-11-04T21:00:14.961Z,12.17
2017-11-04T21:02:50.288Z,9.40
2017-11-04T21:05:24.792Z,11.73
2017-11-04T21:07:59.376Z,11.77
2017-11-04T21:10:33.776Z,12.27
2017-11-04T21:13:09.032Z,12.33
2017-11-04T21:15:44.160Z,10.90
2017-11-04T21:18:19.866Z,13.90
2017-11-04T21:20:54.828Z,13.07
2017-11-04T21:23:29.728Z,11.50
2017-11-04T21:26:04.900Z,14.63
2017-11-04T21:28:39.952Z,14.00
2017-11-04T21:31:15.105Z,14.20
2017-11-04T21:33:50.160Z,13.77
2017-11-04T21:36:25.060Z,15.20
2017-11-04T21:39:00.159Z,14.67
2017-11-04T21:41:35.521Z,13.57
2017-11-04T21:44:10.930Z,13.47
2017-11-04T21:46:45.999Z,14.33
2017-11-04T21:49:21.332Z,16.43
2017-11-04T21:51:56.479Z,15.83
2017-11-04T21:54:31.516Z,15.00
2017-11-04T21:57:06.765Z,16.70
2017-11-04T21:59:42.111Z,15.63
2017-11-04T22:02:17.469Z,16.77
2017-11-04T22:04:52.056Z,16.83
2017-11-04T22:07:27.100Z,14.77
2017-11-04T22:10:02.209Z,14.87
2017-11-04T22:12:37.461Z,16.90
2017-11-04T22:15:11.864Z,17.33
2017-11-04T22:17:47.160Z,18.07
2017-11-04T22:20:22.239Z,16.17
2017-11-04T22:22:57.140Z,15.03
2017-11-04T22:25:32.427Z,16.20
2017-11-04T22:28:09.112Z,13.90
2017-11-04T22:30:43.868Z,17.17
2017-11-04T22:33:18.877Z,17.77
2017-11-04T22:35:53.759Z,14.10
2017-11-04T22:38:29.164Z,16.17
2017-11-04T22:41:03.696Z,15.70
2017-11-04T22:43:38.992Z,17.30
2017-11-04T22:46:14.088Z,18.13
2017-11-04T22:48:49.080Z,13.60
2017-11-04T22:51:24.187Z,15.37
2017-11-04T22:53:59.323Z,17.87
2017-11-04T22:56:34.055Z,17.73
2017-11-04T22:59:09.170Z,16.07
2017-11-04T23:01:44.505Z,18.07
2017-11-04T23:04:19.103Z,17.83
2017-11-04T23:06:54.257Z,17.03
2017-11-04T23:09:29.584Z,18.47
2017-11-04T23:12:04.095Z,17.80
2017-11-04T23:14:39.431Z,17.67
2017-11-04T23:17:14.400Z,18.80
2017-11-04T23:19:48.924Z,18.60
2017-11-04T23:22:23.827Z,15.97
2017-11-04T23:24:59.100Z,17.57
2017-11-04T23:27:34.263Z,15.03
2017-11-04T23:30:09.184Z,18.30
2017-11-04T23:32:44.520Z,17.43
2017-11-04T23:35:19.764Z,16.80
2017-11-04T23:37:55.204Z,15.13
2017-11-04T23:40:29.747Z,16.60
2017-11-04T23:43:04.691Z,15.53
2017-11-04T23:45:39.580Z,15.00
2017-11-04T23:48:14.200Z,16.07
2017-11-04T23:50:49.556Z,15.50
2017-11-04T23:53:24.895Z,15.60
2017-11-04T23:56:00.343Z,13.63
2017-11-04T23:58:35.147Z,15.03
